createdAt,value
2023-03-21T00:00:43.584Z,70.75
2023-03-21T00:03:10.396Z,70.67
2023-03-21T00:05:40.915Z,70.83
2023-03-21T00:08:08.150Z,70.87
2023-03-21T00:10:43.113Z,71.02
2023-03-21T00:13:11.119Z,71.50
2023-03-21T00:15:44.256Z,71.28
2023-03-21T00:18:25.734Z,71.85
2023-03-21T00:21:29.406Z,71.82
2023-03-21T00:23:46.642Z,71.79
2023-03-21T00:26:14.735Z,71.77
2023-03-21T00:28:42.541Z,71.68
2023-03-21T00:31:09.884Z,71.78
2023-03-21T00:33:37.885Z,71.47
2023-03-21T00:36:06.015Z,71.53
2023-03-21T00:38:33.473Z,71.58
2023-03-21T00:41:04.697Z,71.65
2023-03-21T00:43:34.306Z,71.74
2023-03-21T00:46:00.948Z,71.41
2023-03-21T00:48:28.013Z,71.93
2023-03-21T00:50:57.322Z,71.87
2023-03-21T00:53:24.207Z,71.94
2023-03-21T00:55:51.901Z,72.20
2023-03-21T00:58:18.848Z,71.93
2023-03-21T01:00:46.157Z,71.92
2023-03-21T01:03:24.315Z,71.81
2023-03-21T01:05:52.286Z,71.73
2023-03-21T01:08:26.814Z,71.79
2023-03-21T01:11:02.384Z,71.96
2023-03-21T01:13:28.982Z,72.10
2023-03-21T01:15:58.440Z,72.13
2023-03-21T01:18:27.688Z,72.24
2023-03-21T01:20:55.795Z,72.44
2023-03-21T01:23:24.676Z,72.45
2023-03-21T01:25:53.064Z,72.89
2023-03-21T01:28:19.987Z,72.89
2023-03-21T01:30:47.002Z,72.62
2023-03-21T01:33:14.221Z,72.96
2023-03-21T01:35:49.120Z,73.17
2023-03-21T01:38:18.330Z,73.26
2023-03-21T01:40:47.947Z,73.61
2023-03-21T01:43:24.295Z,73.61
2023-03-21T01:46:21.645Z,73.50
2023-03-21T01:48:51.829Z,73.59
2023-03-21T01:51:19.659Z,73.85
2023-03-21T01:53:47.680Z,73.89
2023-03-21T01:56:22.725Z,73.91
2023-03-21T01:58:50.673Z,73.81
2023-03-21T02:01:17.566Z,74.08
2023-03-21T02:03:47.216Z,74.11
2023-03-21T02:06:16.330Z,74.25
2023-03-21T02:08:43.009Z,74.30
2023-03-21T02:11:09.839Z,74.46
2023-03-21T02:13:38.228Z,74.69
2023-03-21T02:16:12.605Z,74.69
2023-03-21T02:18:49.132Z,74.96
2023-03-21T02:21:42.300Z,75.05
2023-03-21T02:25:01.324Z,74.82
2023-03-21T02:27:34.660Z,75.02
2023-03-21T02:30:49.269Z,75.15
2023-03-21T02:33:38.007Z,75.21
2023-03-21T02:36:22.141Z,75.03
2023-03-21T02:38:56.004Z,75.77
2023-03-21T02:41:40.093Z,75.47
2023-03-21T02:44:12.729Z,75.59
2023-03-21T02:46:53.736Z,75.53
2023-03-21T02:49:24.594Z,75.82
2023-03-21T02:51:51.516Z,75.74
2023-03-21T02:54:35.387Z,75.98
2023-03-21T02:57:11.574Z,76.87
2023-03-21T02:59:51.570Z,76.66
2023-03-21T03:02:24.580Z,77.00
2023-03-21T03:04:51.146Z,76.99
2023-03-21T03:07:33.293Z,77.12
2023-03-21T03:10:22.888Z,77.16
2023-03-21T03:12:59.355Z,77.13
2023-03-21T03:15:35.612Z,77.44
2023-03-21T03:18:10.366Z,77.33
2023-03-21T03:20:48.016Z,77.41
2023-03-21T03:23:24.985Z,77.39
2023-03-21T03:25:58.226Z,77.61
2023-03-21T03:28:30.100Z,77.72
2023-03-21T03:31:08.838Z,77.56
2023-03-21T03:33:40.427Z,77.81
2023-03-21T03:36:21.519Z,77.97
2023-03-21T03:38:52.069Z,77.97
2023-03-21T03:41:25.797Z,78.11
2023-03-21T03:43:57.752Z,78.16
2023-03-21T03:46:30.394Z,77.96
2023-03-21T03:49:01.905Z,77.86
2023-03-21T03:51:34.289Z,78.46
2023-03-21T03:54:04.446Z,78.27
2023-03-21T03:56:33.209Z,78.53
2023-03-21T03:59:03.481Z,78.64
2023-03-21T04:01:30.295Z,78.75
2023-03-21T04:04:11.927Z,78.70
2023-03-21T04:06:38.831Z,78.84
2023-03-21T04:09:13.616Z,79.03
2023-03-21T04:11:46.942Z,79.41
2023-03-21T04:14:13.633Z,79.29
2023-03-21T04:16:40.255Z,79.50
2023-03-21T04:19:06.873Z,79.91
2023-03-21T04:21:33.560Z,79.78
2023-03-21T04:24:00.277Z,79.89
2023-03-21T04:26:27.001Z,80.13
2023-03-21T04:28:54.999Z,80.18
2023-03-21T04:31:25.971Z,80.26
2023-03-21T04:33:52.921Z,80.25
2023-03-21T04:36:19.606Z,80.60
2023-03-21T04:38:46.424Z,80.30
2023-03-21T04:41:12.983Z,80.43
2023-03-21T04:43:39.578Z,80.51
2023-03-21T04:46:07.720Z,80.35
2023-03-21T04:48:34.429Z,80.56
2023-03-21T04:51:01.190Z,80.59
2023-03-21T04:53:27.761Z,80.75
2023-03-21T04:55:55.615Z,80.87
2023-03-21T04:58:22.305Z,81.02
2023-03-21T05:00:48.931Z,81.18
2023-03-21T05:03:16.888Z,81.17
2023-03-21T05:05:43.528Z,81.51
2023-03-21T05:08:10.172Z,81.58
2023-03-21T05:10:36.830Z,81.44
2023-03-21T05:13:03.579Z,81.67
2023-03-21T05:15:30.252Z,81.54
2023-03-21T05:17:57.053Z,81.60
2023-03-21T05:20:25.015Z,81.93
2023-03-21T05:22:51.771Z,82.12
2023-03-21T05:25:19.152Z,82.19
2023-03-21T05:27:45.723Z,82.05
2023-03-21T05:30:15.092Z,82.09
2023-03-21T05:32:42.040Z,81.61
2023-03-21T05:35:09.377Z,82.25
2023-03-21T05:37:37.678Z,82.23
2023-03-21T05:40:05.553Z,82.25
2023-03-21T05:42:32.680Z,82.30
2023-03-21T05:44:59.279Z,82.24
2023-03-21T05:47:25.981Z,82.52
2023-03-21T05:49:52.675Z,82.65
2023-03-21T05:52:19.374Z,82.47
2023-03-21T05:54:47.829Z,82.88
2023-03-21T05:57:14.578Z,82.54
2023-03-21T05:59:41.371Z,82.61
2023-03-21T06:02:08.001Z,82.87
2023-03-21T06:04:34.618Z,82.99
2023-03-21T06:07:01.358Z,82.62
2023-03-21T06:09:27.990Z,82.93
2023-03-21T06:11:57.159Z,83.00
2023-03-21T06:14:24.777Z,83.05
2023-03-21T06:16:51.553Z,83.04
2023-03-21T06:19:18.242Z,82.73
2023-03-21T06:21:44.931Z,82.66
2023-03-21T06:24:11.653Z,82.86
2023-03-21T06:26:38.318Z,83.14
2023-03-21T06:29:06.298Z,82.98
2023-03-21T06:31:32.897Z,83.46
2023-03-21T06:33:59.546Z,83.22
2023-03-21T06:36:26.138Z,83.12
2023-03-21T06:38:52.912Z,83.66
2023-03-21T06:41:19.591Z,83.77
2023-03-21T06:43:46.374Z,83.74
2023-03-21T06:46:14.393Z,83.90
2023-03-21T06:48:41.144Z,83.67
2023-03-21T06:51:07.816Z,83.60
2023-03-21T06:53:36.080Z,84.01
2023-03-21T06:56:02.826Z,84.10
2023-03-21T06:58:29.637Z,84.10
2023-03-21T07:00:58.652Z,84.52
2023-03-21T07:03:26.799Z,84.42
2023-03-21T07:05:53.565Z,84.14
2023-03-21T07:08:20.555Z,83.97
2023-03-21T07:10:47.366Z,83.97
2023-03-21T07:13:14.672Z,83.87
2023-03-21T07:15:41.278Z,84.15
2023-03-21T07:18:09.331Z,84.68
2023-03-21T07:20:37.357Z,84.46
2023-03-21T07:23:04.600Z,84.65
2023-03-21T07:25:31.283Z,84.14
2023-03-21T07:27:57.970Z,83.91
2023-03-21T07:30:24.628Z,83.86
2023-03-21T07:32:51.278Z,83.77
2023-03-21T07:35:18.411Z,83.54
2023-03-21T07:37:46.405Z,83.49
2023-03-21T07:40:13.330Z,83.74
2023-03-21T07:42:41.375Z,83.85
2023-03-21T07:45:09.836Z,83.90
2023-03-21T07:47:36.671Z,83.67
2023-03-21T07:50:03.833Z,83.80
2023-03-21T07:52:30.674Z,83.36
2023-03-21T07:54:58.886Z,83.63
2023-03-21T07:57:25.555Z,83.63
2023-03-21T07:59:52.176Z,83.47
2023-03-21T08:02:18.877Z,83.22
2023-03-21T08:04:45.918Z,83.40
2023-03-21T08:07:13.135Z,83.14
2023-03-21T08:09:40.109Z,83.96
2023-03-21T08:12:08.179Z,83.36
2023-03-21T08:14:34.815Z,83.36
2023-03-21T08:17:01.470Z,83.04
2023-03-21T08:19:28.055Z,83.20
2023-03-21T08:21:54.796Z,82.61
2023-03-21T08:24:21.424Z,82.73
2023-03-21T08:26:48.034Z,82.07
2023-03-21T08:29:16.219Z,82.33
2023-03-21T08:31:42.825Z,82.43
2023-03-21T08:34:09.494Z,82.40
2023-03-21T08:36:36.903Z,82.15
2023-03-21T08:39:04.030Z,82.56
2023-03-21T08:41:30.877Z,81.91
2023-03-21T08:43:57.485Z,81.69
2023-03-21T08:46:25.714Z,80.82
2023-03-21T08:48:52.408Z,81.08
2023-03-21T08:51:19.140Z,81.56
2023-03-21T08:53:45.907Z,81.82
2023-03-21T08:56:12.876Z,81.52
2023-03-21T08:58:39.481Z,81.31
2023-03-21T09:01:06.543Z,81.14
2023-03-21T09:03:34.552Z,81.14
2023-03-21T09:06:01.127Z,80.83
2023-03-21T09:08:27.937Z,81.10
2023-03-21T09:10:55.043Z,80.33
2023-03-21T09:13:22.090Z,80.09
2023-03-21T09:15:49.197Z,80.11
2023-03-21T09:18:16.258Z,80.48
2023-03-21T09:20:45.697Z,80.14
2023-03-21T09:23:13.742Z,80.55
2023-03-21T09:25:40.927Z,80.64
2023-03-21T09:28:07.974Z,80.99
2023-03-21T09:30:36.156Z,81.01
2023-03-21T09:33:04.738Z,81.21
2023-03-21T09:35:31.608Z,80.92
2023-03-21T09:37:59.687Z,81.16
2023-03-21T09:40:43.857Z,80.49
2023-03-21T09:43:22.488Z,79.92
2023-03-21T09:45:57.462Z,80.22
2023-03-21T09:48:56.696Z,79.67
2023-03-21T09:51:27.609Z,79.70
2023-03-21T09:53:57.349Z,79.65
2023-03-21T09:56:25.074Z,79.32
2023-03-21T09:58:54.851Z,79.26
2023-03-21T10:01:26.010Z,78.85
2023-03-21T10:03:53.684Z,78.86
2023-03-21T10:06:22.141Z,78.84
2023-03-21T10:08:49.291Z,78.58
2023-03-21T10:11:19.723Z,77.14
2023-03-21T10:13:51.188Z,77.44
2023-03-21T10:16:23.215Z,77.76
2023-03-21T10:18:50.587Z,76.66
2023-03-21T10:21:43.399Z,76.17
2023-03-21T10:24:12.326Z,75.72
2023-03-21T10:26:40.700Z,75.35
2023-03-21T10:29:09.629Z,73.95
2023-03-21T10:31:36.560Z,74.06
2023-03-21T10:34:09.695Z,73.67
2023-03-21T10:36:36.392Z,73.92
2023-03-21T10:39:05.892Z,73.94
2023-03-21T10:41:33.293Z,73.89
2023-03-21T10:44:11.295Z,73.67
2023-03-21T10:46:38.472Z,72.78
2023-03-21T10:49:07.769Z,72.96
2023-03-21T10:51:37.667Z,72.79
2023-03-21T10:54:08.037Z,72.94
2023-03-21T10:56:38.319Z,73.40
2023-03-21T10:59:08.693Z,72.52
2023-03-21T11:01:39.064Z,72.69
2023-03-21T11:04:14.366Z,72.92
2023-03-21T11:06:42.934Z,73.11
2023-03-21T11:09:15.120Z,72.14
2023-03-21T11:11:50.850Z,72.69
2023-03-21T11:14:36.616Z,72.56
2023-03-21T11:17:18.679Z,72.36
2023-03-21T11:19:48.425Z,72.80
2023-03-21T11:22:15.744Z,72.84
2023-03-21T11:24:47.660Z,72.69
2023-03-21T11:27:14.335Z,72.72
2023-03-21T11:29:47.454Z,72.11
2023-03-21T11:32:21.108Z,72.66
2023-03-21T11:34:50.015Z,72.44
2023-03-21T11:37:24.906Z,71.89
2023-03-21T11:39:56.402Z,71.87
2023-03-21T11:42:30.815Z,72.02
2023-03-21T11:45:10.558Z,71.72
2023-03-21T11:47:37.335Z,71.74
2023-03-21T11:50:16.259Z,72.07
2023-03-21T11:52:52.219Z,71.22
2023-03-21T11:55:41.495Z,70.79
2023-03-21T11:58:32.023Z,69.38
2023-03-21T12:01:07.715Z,70.07
2023-03-21T12:04:07.559Z,68.31
2023-03-21T12:06:38.143Z,68.00
2023-03-21T12:09:27.912Z,67.60
2023-03-21T12:12:11.674Z,68.08
2023-03-21T12:14:44.046Z,67.15
2023-03-21T12:17:25.443Z,67.70
2023-03-21T12:20:14.384Z,67.62
2023-03-21T12:22:51.085Z,67.68
2023-03-21T12:25:22.944Z,67.45
2023-03-21T12:28:02.926Z,67.07
2023-03-21T12:30:38.497Z,67.37
2023-03-21T12:33:21.055Z,67.29
2023-03-21T12:35:59.440Z,67.83
2023-03-21T12:38:36.350Z,67.04
2023-03-21T12:41:18.549Z,66.83
2023-03-21T12:43:48.115Z,66.23
2023-03-21T12:46:22.545Z,66.15
2023-03-21T12:48:56.155Z,67.07
2023-03-21T12:51:29.056Z,67.28
2023-03-21T12:54:02.229Z,67.69
2023-03-21T12:56:32.780Z,67.28
2023-03-21T12:59:06.310Z,67.15
2023-03-21T13:01:36.768Z,67.19
2023-03-21T13:04:29.794Z,67.06
2023-03-21T13:07:00.536Z,66.82
2023-03-21T13:09:37.602Z,67.31
2023-03-21T13:12:21.956Z,67.15
2023-03-21T13:15:02.663Z,67.35
2023-03-21T13:17:35.733Z,67.67
2023-03-21T13:20:12.918Z,67.43
2023-03-21T13:22:39.582Z,67.91
2023-03-21T13:25:16.591Z,67.51
2023-03-21T13:27:43.500Z,68.25
2023-03-21T13:30:20.548Z,68.29
2023-03-21T13:32:49.585Z,68.25
2023-03-21T13:35:20.974Z,67.84
2023-03-21T13:37:52.257Z,68.21
2023-03-21T13:40:24.232Z,68.43
2023-03-21T13:42:53.325Z,68.71
2023-03-21T13:45:27.557Z,68.70
2023-03-21T13:47:56.447Z,69.10
2023-03-21T13:51:00.748Z,69.39
2023-03-21T13:53:32.481Z,69.18
2023-03-21T13:56:06.871Z,69.07
2023-03-21T13:58:37.062Z,68.78
2023-03-21T14:01:13.535Z,69.02
2023-03-21T14:03:41.797Z,68.79
2023-03-21T14:06:10.986Z,68.48
2023-03-21T14:08:40.700Z,68.51
2023-03-21T14:11:11.995Z,68.30
2023-03-21T14:13:50.386Z,68.88
2023-03-21T14:16:19.349Z,68.99
2023-03-21T14:18:55.274Z,69.08
2023-03-21T14:21:26.380Z,68.98
2023-03-21T14:24:00.661Z,69.03
2023-03-21T14:26:30.558Z,68.92
2023-03-21T14:28:57.942Z,68.65
2023-03-21T14:31:26.112Z,69.00
2023-03-21T14:33:56.509Z,69.10
2023-03-21T14:36:27.165Z,69.91
2023-03-21T14:39:03.892Z,70.54
2023-03-21T14:41:32.703Z,71.20
2023-03-21T14:44:11.063Z,71.08
2023-03-21T14:46:37.967Z,70.91
2023-03-21T14:49:19.263Z,70.82
2023-03-21T14:51:47.548Z,70.94
2023-03-21T14:54:16.219Z,70.32
2023-03-21T14:56:44.816Z,70.50
2023-03-21T14:59:14.425Z,70.52
2023-03-21T15:01:41.404Z,70.56
2023-03-21T15:04:08.333Z,70.63
2023-03-21T15:06:50.502Z,69.74
2023-03-21T15:09:22.205Z,70.06
2023-03-21T15:11:51.396Z,69.67
2023-03-21T15:14:21.033Z,69.70
2023-03-21T15:16:48.902Z,69.63
2023-03-21T15:19:19.380Z,69.67
2023-03-21T15:21:49.031Z,69.54
2023-03-21T15:24:22.150Z,69.27
2023-03-21T15:26:50.344Z,69.37
2023-03-21T15:29:18.129Z,69.10
2023-03-21T15:31:49.153Z,69.65
2023-03-21T15:34:22.877Z,70.01
2023-03-21T15:36:54.534Z,70.16
2023-03-21T15:39:22.597Z,70.52
2023-03-21T15:42:04.422Z,70.49
2023-03-21T15:44:32.172Z,70.62
2023-03-21T15:46:59.256Z,70.87
2023-03-21T15:49:28.574Z,70.40
2023-03-21T15:52:00.740Z,70.88
2023-03-21T15:54:31.358Z,70.82
2023-03-21T15:57:00.140Z,70.54
2023-03-21T15:59:35.048Z,70.99
2023-03-21T16:02:03.303Z,71.18
2023-03-21T16:04:30.047Z,71.17
2023-03-21T16:06:59.640Z,71.25
2023-03-21T16:09:26.702Z,71.57
2023-03-21T16:11:56.549Z,71.64
2023-03-21T16:14:24.078Z,71.92
2023-03-21T16:16:51.094Z,72.35
2023-03-21T16:19:17.909Z,72.03
2023-03-21T16:21:44.537Z,71.91
2023-03-21T16:24:11.765Z,72.36
2023-03-21T16:26:42.086Z,72.47
2023-03-21T16:29:11.999Z,72.78
2023-03-21T16:31:38.659Z,72.58
2023-03-21T16:34:05.287Z,72.83
2023-03-21T16:36:34.180Z,72.80
2023-03-21T16:39:00.742Z,72.92
2023-03-21T16:41:28.002Z,72.81
2023-03-21T16:43:55.207Z,73.41
2023-03-21T16:46:24.608Z,73.34
2023-03-21T16:48:53.819Z,73.44
2023-03-21T16:53:49.272Z,73.51
2023-03-21T16:56:19.780Z,73.43
2023-03-21T16:58:46.487Z,73.69
2023-03-21T17:01:14.859Z,73.75
2023-03-21T17:03:43.188Z,73.97
2023-03-21T17:06:14.456Z,74.00
2023-03-21T17:08:41.090Z,74.01
2023-03-21T17:11:09.347Z,74.16
2023-03-21T17:13:36.002Z,74.61
2023-03-21T17:16:02.827Z,74.32
2023-03-21T17:18:29.639Z,74.66
2023-03-21T17:20:57.645Z,74.29
2023-03-21T17:23:24.262Z,74.42
2023-03-21T17:25:50.845Z,74.68
2023-03-21T17:28:17.482Z,75.04
2023-03-21T17:30:44.553Z,74.78
2023-03-21T17:33:11.277Z,75.02
2023-03-21T17:35:38.066Z,74.97
2023-03-21T17:38:11.753Z,75.16
2023-03-21T17:40:38.732Z,75.43
2023-03-21T17:43:06.026Z,75.49
2023-03-21T17:45:32.827Z,75.62
2023-03-21T17:47:59.483Z,75.67
2023-03-21T17:50:30.819Z,75.68
2023-03-21T17:52:57.449Z,75.83
2023-03-21T17:55:25.876Z,75.59
2023-03-21T17:57:52.496Z,75.97
2023-03-21T18:00:21.934Z,75.73
2023-03-21T18:02:48.562Z,75.61
2023-03-21T18:05:15.662Z,75.89
2023-03-21T18:08:08.954Z,76.05
2023-03-21T18:10:31.872Z,76.11
2023-03-21T18:12:58.721Z,75.91
2023-03-21T18:15:30.240Z,76.43
2023-03-21T18:17:57.326Z,76.06
2023-03-21T18:20:25.216Z,76.41
2023-03-21T18:22:51.850Z,76.54
2023-03-21T18:25:18.585Z,75.98
2023-03-21T18:28:09.544Z,76.43
2023-03-21T18:30:53.555Z,76.32
2023-03-21T18:33:20.192Z,76.32
2023-03-21T18:35:47.145Z,76.75
2023-03-21T18:38:13.846Z,77.11
2023-03-21T18:40:40.846Z,76.70
2023-03-21T18:43:55.798Z,76.95
2023-03-21T18:45:55.916Z,77.36
2023-03-21T18:48:22.726Z,77.55
2023-03-21T18:50:49.522Z,77.43
2023-03-21T18:53:16.153Z,77.12
2023-03-21T18:55:46.694Z,77.40
2023-03-21T18:58:15.620Z,77.47
2023-03-21T19:00:43.162Z,77.93
2023-03-21T19:03:21.775Z,77.93
2023-03-21T19:05:58.628Z,78.64
2023-03-21T19:08:25.343Z,78.68
2023-03-21T19:10:51.957Z,78.75
2023-03-21T19:13:20.122Z,78.81
2023-03-21T19:15:49.554Z,79.53
2023-03-21T19:21:03.755Z,79.97
2023-03-21T19:23:40.793Z,80.49
2023-03-21T19:26:16.706Z,80.44
2023-03-21T19:28:44.738Z,80.53
2023-03-21T19:31:11.401Z,80.96
2023-03-21T19:33:38.282Z,81.52
2023-03-21T19:36:17.636Z,81.47
2023-03-21T19:38:47.668Z,81.73
2023-03-21T19:41:14.389Z,81.66
2023-03-21T19:43:52.804Z,82.12
2023-03-21T19:46:22.056Z,82.15
2023-03-21T19:48:48.944Z,82.28
2023-03-21T19:51:31.144Z,82.37
2023-03-21T19:53:58.315Z,82.59
2023-03-21T19:56:27.418Z,82.78
2023-03-21T19:58:54.543Z,82.87
2023-03-21T20:01:23.575Z,82.93
2023-03-21T20:03:50.749Z,82.87
2023-03-21T20:06:17.464Z,82.89
2023-03-21T20:11:30.746Z,83.26
2023-03-21T20:13:57.352Z,83.71
2023-03-21T20:16:25.497Z,83.99
2023-03-21T20:18:53.467Z,84.21
2023-03-21T20:21:25.409Z,84.29
2023-03-21T20:23:52.462Z,84.51
2023-03-21T20:26:19.117Z,84.63
2023-03-21T20:28:56.686Z,84.70
2023-03-21T20:31:34.163Z,84.85
2023-03-21T20:34:01.026Z,85.00
2023-03-21T20:36:43.893Z,84.88
2023-03-21T20:39:10.598Z,85.50
2023-03-21T20:41:38.177Z,84.75
2023-03-21T20:46:53.465Z,85.56
2023-03-21T20:49:20.620Z,85.43
2023-03-21T20:52:49.751Z,85.42
2023-03-21T20:54:34.143Z,85.45
2023-03-21T20:57:00.805Z,85.36
2023-03-21T20:59:28.302Z,85.35
2023-03-21T21:01:57.848Z,85.24
2023-03-21T21:04:42.829Z,85.07
2023-03-21T21:07:12.535Z,85.13
2023-03-21T21:09:39.152Z,85.40
2023-03-21T21:12:07.895Z,85.20
2023-03-21T21:14:35.612Z,85.01
2023-03-21T21:17:20.842Z,85.11
2023-03-21T21:19:51.007Z,84.93
2023-03-21T21:22:17.718Z,84.93
2023-03-21T21:24:44.662Z,84.92
2023-03-21T21:27:11.314Z,84.91
2023-03-21T21:29:38.656Z,84.79
2023-03-21T21:32:06.583Z,84.59
2023-03-21T21:34:33.186Z,84.87
2023-03-21T21:36:59.784Z,84.82
2023-03-21T21:39:26.438Z,84.86
2023-03-21T21:41:53.850Z,85.01
2023-03-21T21:44:20.504Z,85.45
2023-03-21T21:46:47.233Z,85.37
2023-03-21T21:49:15.295Z,85.34
2023-03-21T21:51:42.043Z,85.57
2023-03-21T21:54:08.769Z,85.50
2023-03-21T21:56:37.823Z,85.32
2023-03-21T21:59:04.639Z,86.03
2023-03-21T22:01:32.376Z,85.91
2023-03-21T22:03:59.189Z,85.80
2023-03-21T22:06:27.178Z,85.87
2023-03-21T22:08:53.807Z,86.13
2023-03-21T22:11:20.548Z,86.02
2023-03-21T22:13:47.646Z,85.74
2023-03-21T22:16:14.344Z,85.53
2023-03-21T22:18:41.001Z,85.61
2023-03-21T22:21:08.167Z,85.92
2023-03-21T22:23:36.240Z,85.58
2023-03-21T22:26:02.837Z,85.32
2023-03-21T22:28:30.526Z,85.98
2023-03-21T22:30:57.171Z,86.04
2023-03-21T22:33:23.840Z,85.58
2023-03-21T22:35:52.630Z,85.70
2023-03-21T22:38:19.605Z,85.83
2023-03-21T22:40:53.418Z,85.57
2023-03-21T22:43:20.071Z,85.62
2023-03-21T22:45:46.738Z,85.80
2023-03-21T22:48:13.447Z,85.50
2023-03-21T22:50:41.439Z,85.67
2023-03-21T22:53:08.977Z,85.83
2023-03-21T22:55:35.604Z,85.51
2023-03-21T22:58:03.644Z,85.91
2023-03-21T23:00:30.342Z,85.74
2023-03-21T23:02:57.038Z,85.66
2023-03-21T23:05:23.687Z,86.24
2023-03-21T23:07:50.322Z,86.40
2023-03-21T23:10:17.854Z,86.40
2023-03-21T23:12:44.681Z,87.10
2023-03-21T23:15:12.852Z,86.76
2023-03-21T23:17:39.621Z,86.93
2023-03-21T23:20:07.331Z,87.05
2023-03-21T23:22:35.020Z,87.57
2023-03-21T23:25:01.978Z,87.51
2023-03-21T23:27:28.955Z,87.70
2023-03-21T23:29:55.555Z,87.28
2023-03-21T23:32:23.906Z,87.13
2023-03-21T23:34:50.563Z,87.12
2023-03-21T23:37:17.186Z,86.89
2023-03-21T23:39:43.732Z,86.52
2023-03-21T23:42:10.662Z,86.54
2023-03-21T23:44:37.376Z,85.92
2023-03-21T23:47:04.050Z,86.42
2023-03-21T23:49:32.082Z,86.30
2023-03-21T23:51:58.734Z,86.14
2023-03-21T23:54:25.480Z,86.46
2023-03-21T23:56:52.095Z,86.45
2023-03-21T23:59:18.677Z,86.43
